Check out our new PWSWeather beta!
PWSweather.com
Personal Weather Stations
Station Observations
IPEONIA2
GrivaGR

GrivaGR

Lat: 40.954, Lon: 22.409

Elevation: 1512

Station Type: Ambient Weather:WH2600 Observer-IP

High Low Average
Temperature 60.4°F15.8°F 40.3°F4.6°F 50.4°F10.2°F
Dew Point 51.3°F10.7°F 38.1°F3.4°F 44.8°F7.1°F
Winds 4.9 mph -7.9 mph - Calm Calm 0.2 mph 0.3 mph
Wind Gusts 7.6 mph12.2 mph -- 1.2 mph1.9 mph
Humidity 96% 70% 82%
Pressure 30.18 in1022.00 in 29.95 in1014.20 in -
Precipitation 0.00 in0.00 in - -
Hour Temp Dew Point Humidity Winds Wind Gusts Pressure Precip Precip Rate Daily Precip Total
12:01 AM 45.3°F7.4°C 42.6°F5.9°C 90% Calm Calm -- 30.18 in1022.0 mb 0.00 in0.0 mm 0.00 in0.0 mm 0.00 in0.0 mm
12:06 AM 45.3°F7.4°C 42.3°F5.7°C 89% Calm Calm -- 30.18 in1022.0 mb 0.00 in0.0 mm 0.00 in0.0 mm 0.00 in0.0 mm
12:11 AM 45.5°F7.5°C 42.4°F5.8°C 89% Calm Calm -- 30.18 in1022.0 mb 0.00 in0.0 mm 0.00 in0.0 mm 0.00 in0.0 mm
12:16 AM 45.5°F7.5°C 42.8°F6.0°C 90% Calm Calm -- 30.18 in1022.0 mb 0.00 in0.0 mm 0.00 in0.0 mm 0.00 in0.0 mm
12:21 AM 45.3°F7.4°C 42.6°F5.9°C 90% Calm Calm -- 30.18 in1022.0 mb 0.00 in0.0 mm 0.00 in0.0 mm 0.00 in0.0 mm
12:27 AM 45.1°F7.3°C 42.4°F5.8°C 90% Calm Calm -- 30.18 in1022.0 mb 0.00 in0.0 mm 0.00 in0.0 mm 0.00 in0.0 mm
12:32 AM 44.6°F7.0°C 42.1°F5.6°C 91% Calm Calm -- 30.17 in1021.7 mb 0.00 in0.0 mm 0.00 in0.0 mm 0.00 in0.0 mm
12:37 AM 44.6°F7.0°C 42.1°F5.6°C 91% Calm Calm -- 30.18 in1022.0 mb 0.00 in0.0 mm 0.00 in0.0 mm 0.00 in0.0 mm
12:42 AM 44.4°F6.9°C 42.3°F5.7°C 92% Calm Calm -- 30.18 in1022.0 mb 0.00 in0.0 mm 0.00 in0.0 mm 0.00 in0.0 mm
12:47 AM 44.2°F6.8°C 41.7°F5.4°C 91% Calm Calm -- 30.17 in1021.7 mb 0.00 in0.0 mm 0.00 in0.0 mm 0.00 in0.0 mm
12:52 AM 44.2°F6.8°C 41.7°F5.4°C 91% Calm Calm -- 30.17 in1021.7 mb 0.00 in0.0 mm 0.00 in0.0 mm 0.00 in0.0 mm
12:57 AM 44.2°F6.8°C 41.5°F5.3°C 90% Calm Calm -- 30.17 in1021.7 mb 0.00 in0.0 mm 0.00 in0.0 mm 0.00 in0.0 mm
01:02 AM 44.2°F6.8°C 41.2°F5.1°C 89% Calm Calm -- 30.16 in1021.3 mb 0.00 in0.0 mm 0.00 in0.0 mm 0.00 in0.0 mm
01:07 AM 44.4°F6.9°C 41.4°F5.2°C 89% Calm Calm -- 30.16 in1021.3 mb 0.00 in0.0 mm 0.00 in0.0 mm 0.00 in0.0 mm
01:12 AM 45.5°F7.5°C 42.4°F5.8°C 89% Calm Calm -- 30.16 in1021.3 mb 0.00 in0.0 mm 0.00 in0.0 mm 0.00 in0.0 mm
01:17 AM 45.3°F7.4°C 42.6°F5.9°C 90% Calm Calm -- 30.16 in1021.3 mb 0.00 in0.0 mm 0.00 in0.0 mm 0.00 in0.0 mm
01:23 AM 45.5°F7.5°C 42.8°F6.0°C 90% Calm Calm -- 30.15 in1021.0 mb 0.00 in0.0 mm 0.00 in0.0 mm 0.00 in0.0 mm
01:28 AM 45.5°F7.5°C 42.8°F6.0°C 90% Calm Calm -- 30.15 in1021.0 mb 0.00 in0.0 mm 0.00 in0.0 mm 0.00 in0.0 mm
01:33 AM 45.5°F7.5°C 42.8°F6.0°C 90% Calm Calm -- 30.15 in1021.0 mb 0.00 in0.0 mm 0.00 in0.0 mm 0.00 in0.0 mm
01:38 AM 45.3°F7.4°C 42.6°F5.9°C 90% Calm Calm -- 30.15 in1021.0 mb 0.00 in0.0 mm 0.00 in0.0 mm 0.00 in0.0 mm
01:43 AM 45.3°F7.4°C 42.6°F5.9°C 90% Calm Calm -- 30.15 in1021.0 mb 0.00 in0.0 mm 0.00 in0.0 mm 0.00 in0.0 mm
01:48 AM 45.3°F7.4°C 42.6°F5.9°C 90% Calm Calm -- 30.15 in1021.0 mb 0.00 in0.0 mm 0.00 in0.0 mm 0.00 in0.0 mm
01:53 AM 44.6°F7.0°C 41.9°F5.5°C 90% Calm Calm -- 30.15 in1021.0 mb 0.00 in0.0 mm 0.00 in0.0 mm 0.00 in0.0 mm
01:58 AM 44.6°F7.0°C 41.9°F5.5°C 90% Calm Calm -- 30.15 in1021.0 mb 0.00 in0.0 mm 0.00 in0.0 mm 0.00 in0.0 mm
02:03 AM 44.6°F7.0°C 41.9°F5.5°C 90% Calm Calm -- 30.15 in1021.0 mb 0.00 in0.0 mm 0.00 in0.0 mm 0.00 in0.0 mm
02:08 AM 44.6°F7.0°C 41.5°F5.3°C 89% Calm Calm -- 30.15 in1021.0 mb 0.00 in0.0 mm 0.00 in0.0 mm 0.00 in0.0 mm
02:14 AM 44.2°F6.8°C 41.2°F5.1°C 89% Calm Calm -- 30.14 in1020.7 mb 0.00 in0.0 mm 0.00 in0.0 mm 0.00 in0.0 mm
02:19 AM 44.2°F6.8°C 41.2°F5.1°C 89% Calm Calm -- 30.15 in1021.0 mb 0.00 in0.0 mm 0.00 in0.0 mm 0.00 in0.0 mm
02:24 AM 44.2°F6.8°C 40.6°F4.8°C 87% Calm Calm -- 30.14 in1020.7 mb 0.00 in0.0 mm 0.00 in0.0 mm 0.00 in0.0 mm
02:29 AM 44.2°F6.8°C 41.0°F5.0°C 88% Calm Calm -- 30.14 in1020.7 mb 0.00 in0.0 mm 0.00 in0.0 mm 0.00 in0.0 mm
02:34 AM 43.7°F6.5°C 40.6°F4.8°C 89% Calm Calm -- 30.14 in1020.7 mb 0.00 in0.0 mm 0.00 in0.0 mm 0.00 in0.0 mm
02:39 AM 43.9°F6.6°C 40.8°F4.9°C 89% Calm Calm -- 30.14 in1020.7 mb 0.00 in0.0 mm 0.00 in0.0 mm 0.00 in0.0 mm
02:44 AM 43.9°F6.6°C 41.4°F5.2°C 91% Calm Calm -- 30.14 in1020.7 mb 0.00 in0.0 mm 0.00 in0.0 mm 0.00 in0.0 mm
02:49 AM 43.7°F6.5°C 41.2°F5.1°C 91% Calm Calm -- 30.14 in1020.7 mb 0.00 in0.0 mm 0.00 in0.0 mm 0.00 in0.0 mm
02:54 AM 43.5°F6.4°C 40.5°F4.7°C 89% Calm Calm -- 30.14 in1020.7 mb 0.00 in0.0 mm 0.00 in0.0 mm 0.00 in0.0 mm
02:59 AM 43.5°F6.4°C 40.5°F4.7°C 89% Calm Calm -- 30.13 in1020.3 mb 0.00 in0.0 mm 0.00 in0.0 mm 0.00 in0.0 mm
03:04 AM 43.5°F6.4°C 40.5°F4.7°C 89% Calm Calm -- 30.13 in1020.3 mb 0.00 in0.0 mm 0.00 in0.0 mm 0.00 in0.0 mm
03:10 AM 43.5°F6.4°C 40.5°F4.7°C 89% Calm Calm -- 30.12 in1020.0 mb 0.00 in0.0 mm 0.00 in0.0 mm 0.00 in0.0 mm
03:15 AM 43.7°F6.5°C 40.6°F4.8°C 89% Calm Calm -- 30.12 in1020.0 mb 0.00 in0.0 mm 0.00 in0.0 mm 0.00 in0.0 mm
03:20 AM 43.7°F6.5°C 41.0°F5.0°C 90% Calm Calm -- 30.12 in1020.0 mb 0.00 in0.0 mm 0.00 in0.0 mm 0.00 in0.0 mm
03:25 AM 43.7°F6.5°C 41.2°F5.1°C 91% Calm Calm -- 30.11 in1019.6 mb 0.00 in0.0 mm 0.00 in0.0 mm 0.00 in0.0 mm
03:30 AM 43.7°F6.5°C 41.0°F5.0°C 90% Calm Calm -- 30.12 in1020.0 mb 0.00 in0.0 mm 0.00 in0.0 mm 0.00 in0.0 mm
03:35 AM 43.5°F6.4°C 40.5°F4.7°C 89% Calm Calm -- 30.11 in1019.6 mb 0.00 in0.0 mm 0.00 in0.0 mm 0.00 in0.0 mm
03:40 AM 43.5°F6.4°C 40.8°F4.9°C 90% Calm Calm -- 30.12 in1020.0 mb 0.00 in0.0 mm 0.00 in0.0 mm 0.00 in0.0 mm
03:45 AM 43.5°F6.4°C 40.8°F4.9°C 90% Calm Calm -- 30.12 in1020.0 mb 0.00 in0.0 mm 0.00 in0.0 mm 0.00 in0.0 mm
03:50 AM 43.2°F6.2°C 40.5°F4.7°C 90% Calm Calm -- 30.11 in1019.6 mb 0.00 in0.0 mm 0.00 in0.0 mm 0.00 in0.0 mm
03:55 AM 43.0°F6.1°C 40.8°F4.9°C 92% Calm Calm -- 30.12 in1020.0 mb 0.00 in0.0 mm 0.00 in0.0 mm 0.00 in0.0 mm
04:00 AM 43.0°F6.1°C 40.8°F4.9°C 92% Calm Calm -- 30.12 in1020.0 mb 0.00 in0.0 mm 0.00 in0.0 mm 0.00 in0.0 mm
04:06 AM 42.8°F6.0°C 40.6°F4.8°C 92% Calm Calm -- 30.11 in1019.6 mb 0.00 in0.0 mm 0.00 in0.0 mm 0.00 in0.0 mm
04:11 AM 42.4°F5.8°C 40.6°F4.8°C 93% Calm Calm -- 30.12 in1020.0 mb 0.00 in0.0 mm 0.00 in0.0 mm 0.00 in0.0 mm
04:16 AM 42.3°F5.7°C 40.6°F4.8°C 94% Calm Calm -- 30.12 in1020.0 mb 0.00 in0.0 mm 0.00 in0.0 mm 0.00 in0.0 mm
04:21 AM 42.1°F5.6°C 40.5°F4.7°C 94% Calm Calm -- 30.11 in1019.6 mb 0.00 in0.0 mm 0.00 in0.0 mm 0.00 in0.0 mm
04:26 AM 42.3°F5.7°C 40.1°F4.5°C 92% Calm Calm -- 30.11 in1019.6 mb 0.00 in0.0 mm 0.00 in0.0 mm 0.00 in0.0 mm
04:31 AM 42.3°F5.7°C 40.5°F4.7°C 93% Calm Calm -- 30.11 in1019.6 mb 0.00 in0.0 mm 0.00 in0.0 mm 0.00 in0.0 mm
04:36 AM 42.3°F5.7°C 40.5°F4.7°C 93% Calm Calm -- 30.11 in1019.6 mb 0.00 in0.0 mm 0.00 in0.0 mm 0.00 in0.0 mm
04:41 AM 42.3°F5.7°C 40.6°F4.8°C 94% Calm Calm -- 30.11 in1019.6 mb 0.00 in0.0 mm 0.00 in0.0 mm 0.00 in0.0 mm
04:46 AM 42.3°F5.7°C 40.1°F4.5°C 92% Calm Calm -- 30.10 in1019.3 mb 0.00 in0.0 mm 0.00 in0.0 mm 0.00 in0.0 mm
04:51 AM 42.4°F5.8°C 40.3°F4.6°C 92% Calm Calm -- 30.11 in1019.6 mb 0.00 in0.0 mm 0.00 in0.0 mm 0.00 in0.0 mm
04:56 AM 42.3°F5.7°C 40.5°F4.7°C 93% Calm Calm -- 30.11 in1019.6 mb 0.00 in0.0 mm 0.00 in0.0 mm 0.00 in0.0 mm
05:01 AM 42.3°F5.7°C 40.1°F4.5°C 92% Calm Calm -- 30.11 in1019.6 mb 0.00 in0.0 mm 0.00 in0.0 mm 0.00 in0.0 mm
05:07 AM 42.3°F5.7°C 39.7°F4.3°C 91% Calm Calm -- 30.10 in1019.3 mb 0.00 in0.0 mm 0.00 in0.0 mm 0.00 in0.0 mm
05:12 AM 41.9°F5.5°C 39.7°F4.3°C 92% Calm Calm -- 30.10 in1019.3 mb 0.00 in0.0 mm 0.00 in0.0 mm 0.00 in0.0 mm
05:17 AM 41.9°F5.5°C 39.7°F4.3°C 92% Calm Calm -- 30.10 in1019.3 mb 0.00 in0.0 mm 0.00 in0.0 mm 0.00 in0.0 mm
05:22 AM 42.1°F5.6°C 39.9°F4.4°C 92% Calm Calm -- 30.11 in1019.6 mb 0.00 in0.0 mm 0.00 in0.0 mm 0.00 in0.0 mm
05:27 AM 42.1°F5.6°C 40.3°F4.6°C 93% Calm Calm -- 30.11 in1019.6 mb 0.00 in0.0 mm 0.00 in0.0 mm 0.00 in0.0 mm
05:32 AM 42.3°F5.7°C 40.6°F4.8°C 94% Calm Calm -- 30.10 in1019.3 mb 0.00 in0.0 mm 0.00 in0.0 mm 0.00 in0.0 mm
05:37 AM 42.3°F5.7°C 40.1°F4.5°C 92% Calm Calm -- 30.11 in1019.6 mb 0.00 in0.0 mm 0.00 in0.0 mm 0.00 in0.0 mm
05:42 AM 42.3°F5.7°C 39.6°F4.2°C 90% Calm Calm -- 30.10 in1019.3 mb 0.00 in0.0 mm 0.00 in0.0 mm 0.00 in0.0 mm
05:47 AM 42.1°F5.6°C 39.4°F4.1°C 90% Calm Calm -- 30.10 in1019.3 mb 0.00 in0.0 mm 0.00 in0.0 mm 0.00 in0.0 mm
05:52 AM 41.7°F5.4°C 39.6°F4.2°C 92% Calm Calm -- 30.10 in1019.3 mb 0.00 in0.0 mm 0.00 in0.0 mm 0.00 in0.0 mm
05:58 AM 41.7°F5.4°C 39.6°F4.2°C 92% Calm Calm -- 30.11 in1019.6 mb 0.00 in0.0 mm 0.00 in0.0 mm 0.00 in0.0 mm
06:03 AM 41.7°F5.4°C 38.7°F3.7°C 89% Calm Calm -- 30.11 in1019.6 mb 0.00 in0.0 mm 0.00 in0.0 mm 0.00 in0.0 mm
06:08 AM 41.7°F5.4°C 38.7°F3.7°C 89% Calm Calm -- 30.10 in1019.3 mb 0.00 in0.0 mm 0.00 in0.0 mm 0.00 in0.0 mm
06:13 AM 41.4°F5.2°C 38.3°F3.5°C 89% Calm Calm -- 30.11 in1019.6 mb 0.00 in0.0 mm 0.00 in0.0 mm 0.00 in0.0 mm
06:18 AM 41.4°F5.2°C 38.7°F3.7°C 90% Calm Calm -- 30.10 in1019.3 mb 0.00 in0.0 mm 0.00 in0.0 mm 0.00 in0.0 mm
06:23 AM 41.4°F5.2°C 38.1°F3.4°C 88% Calm Calm -- 30.11 in1019.6 mb 0.00 in0.0 mm 0.00 in0.0 mm 0.00 in0.0 mm
06:28 AM 41.4°F5.2°C 39.0°F3.9°C 91% Calm Calm -- 30.11 in1019.6 mb 0.00 in0.0 mm 0.00 in0.0 mm 0.00 in0.0 mm
06:33 AM 41.5°F5.3°C 38.8°F3.8°C 90% Calm Calm -- 30.11 in1019.6 mb 0.00 in0.0 mm 0.00 in0.0 mm 0.00 in0.0 mm
06:38 AM 41.4°F5.2°C 39.6°F4.2°C 93% Calm Calm -- 30.10 in1019.3 mb 0.00 in0.0 mm 0.00 in0.0 mm 0.00 in0.0 mm
06:43 AM 41.4°F5.2°C 39.2°F4.0°C 92% Calm Calm -- 30.10 in1019.3 mb 0.00 in0.0 mm 0.00 in0.0 mm 0.00 in0.0 mm
06:48 AM 41.2°F5.1°C 39.6°F4.2°C 94% Calm Calm -- 30.11 in1019.6 mb 0.00 in0.0 mm 0.00 in0.0 mm 0.00 in0.0 mm
06:53 AM 40.3°F4.6°C 39.2°F4.0°C 96% Calm Calm -- 30.10 in1019.3 mb 0.00 in0.0 mm 0.00 in0.0 mm 0.00 in0.0 mm
06:59 AM 40.3°F4.6°C 39.0°F3.9°C 95% Calm Calm -- 30.11 in1019.6 mb 0.00 in0.0 mm 0.00 in0.0 mm 0.00 in0.0 mm
07:04 AM 40.3°F4.6°C 38.7°F3.7°C 94% Calm Calm -- 30.10 in1019.3 mb 0.00 in0.0 mm 0.00 in0.0 mm 0.00 in0.0 mm
07:09 AM 40.5°F4.7°C 38.3°F3.5°C 92% Calm Calm -- 30.10 in1019.3 mb 0.00 in0.0 mm 0.00 in0.0 mm 0.00 in0.0 mm
07:14 AM 41.0°F5.0°C 38.7°F3.7°C 91% Calm Calm -- 30.10 in1019.3 mb 0.00 in0.0 mm 0.00 in0.0 mm 0.00 in0.0 mm
07:19 AM 41.0°F5.0°C 38.8°F3.8°C 92% Calm Calm -- 30.10 in1019.3 mb 0.00 in0.0 mm 0.00 in0.0 mm 0.00 in0.0 mm
07:24 AM 41.2°F5.1°C 38.8°F3.8°C 91% Calm Calm -- 30.10 in1019.3 mb 0.00 in0.0 mm 0.00 in0.0 mm 0.00 in0.0 mm
07:29 AM 41.4°F5.2°C 38.3°F3.5°C 89% Calm Calm -- 30.10 in1019.3 mb 0.00 in0.0 mm 0.00 in0.0 mm 0.00 in0.0 mm
07:34 AM 42.3°F5.7°C 39.2°F4.0°C 89% Calm Calm -- 30.10 in1019.3 mb 0.00 in0.0 mm 0.00 in0.0 mm 0.00 in0.0 mm
07:39 AM 42.3°F5.7°C 39.7°F4.3°C 91% Calm Calm -- 30.10 in1019.3 mb 0.00 in0.0 mm 0.00 in0.0 mm 0.00 in0.0 mm
07:44 AM 42.3°F5.7°C 39.2°F4.0°C 89% Calm Calm -- 30.10 in1019.3 mb 0.00 in0.0 mm 0.00 in0.0 mm 0.00 in0.0 mm
07:50 AM 42.4°F5.8°C 38.8°F3.8°C 87% Calm Calm -- 30.10 in1019.3 mb 0.00 in0.0 mm 0.00 in0.0 mm 0.00 in0.0 mm
07:55 AM 45.1°F7.3°C 40.8°F4.9°C 85% Calm Calm -- 30.11 in1019.6 mb 0.00 in0.0 mm 0.00 in0.0 mm 0.00 in0.0 mm
08:00 AM 45.3°F7.4°C 40.5°F4.7°C 83% Calm Calm -- 30.11 in1019.6 mb 0.00 in0.0 mm 0.00 in0.0 mm 0.00 in0.0 mm
08:05 AM 45.3°F7.4°C 40.8°F4.9°C 84% Calm Calm -- 30.11 in1019.6 mb 0.00 in0.0 mm 0.00 in0.0 mm 0.00 in0.0 mm
08:10 AM 45.3°F7.4°C 40.8°F4.9°C 84% Calm Calm -- 30.11 in1019.6 mb 0.00 in0.0 mm 0.00 in0.0 mm 0.00 in0.0 mm
08:15 AM 45.1°F7.3°C 40.3°F4.6°C 83% Calm Calm -- 30.11 in1019.6 mb 0.00 in0.0 mm 0.00 in0.0 mm 0.00 in0.0 mm
08:20 AM 45.1°F7.3°C 39.9°F4.4°C 82% Calm Calm -- 30.11 in1019.6 mb 0.00 in0.0 mm 0.00 in0.0 mm 0.00 in0.0 mm
08:25 AM 45.3°F7.4°C 39.6°F4.2°C 80% Calm Calm -- 30.12 in1020.0 mb 0.00 in0.0 mm 0.00 in0.0 mm 0.00 in0.0 mm
08:30 AM 45.5°F7.5°C 39.4°F4.1°C 79% Calm Calm -- 30.11 in1019.6 mb 0.00 in0.0 mm 0.00 in0.0 mm 0.00 in0.0 mm
08:35 AM 46.6°F8.1°C 41.0°F5.0°C 81% Calm Calm -- 30.12 in1020.0 mb 0.00 in0.0 mm 0.00 in0.0 mm 0.00 in0.0 mm
08:40 AM 46.6°F8.1°C 41.4°F5.2°C 82% Calm Calm -- 30.12 in1020.0 mb 0.00 in0.0 mm 0.00 in0.0 mm 0.00 in0.0 mm
08:45 AM 46.8°F8.2°C 42.3°F5.7°C 84% Calm Calm -- 30.12 in1020.0 mb 0.00 in0.0 mm 0.00 in0.0 mm 0.00 in0.0 mm
08:51 AM 46.8°F8.2°C 41.9°F5.5°C 83% Calm Calm -- 30.12 in1020.0 mb 0.00 in0.0 mm 0.00 in0.0 mm 0.00 in0.0 mm
08:56 AM 47.5°F8.6°C 42.3°F5.7°C 82% Calm Calm -- 30.12 in1020.0 mb 0.00 in0.0 mm 0.00 in0.0 mm 0.00 in0.0 mm
09:01 AM 47.5°F8.6°C 42.3°F5.7°C 82% Calm Calm -- 30.12 in1020.0 mb 0.00 in0.0 mm 0.00 in0.0 mm 0.00 in0.0 mm
09:06 AM 47.7°F8.7°C 42.1°F5.6°C 81% Calm Calm -- 30.11 in1019.6 mb 0.00 in0.0 mm 0.00 in0.0 mm 0.00 in0.0 mm
09:11 AM 48.0°F8.9°C 41.5°F5.3°C 78% Calm Calm -- 30.12 in1020.0 mb 0.00 in0.0 mm 0.00 in0.0 mm 0.00 in0.0 mm
09:16 AM 49.1°F9.5°C 42.8°F6.0°C 79% Calm Calm -- 30.12 in1020.0 mb 0.00 in0.0 mm 0.00 in0.0 mm 0.00 in0.0 mm
09:21 AM 49.1°F9.5°C 43.2°F6.2°C 80% Calm Calm -- 30.11 in1019.6 mb 0.00 in0.0 mm 0.00 in0.0 mm 0.00 in0.0 mm
09:26 AM 49.1°F9.5°C 43.9°F6.6°C 82% Calm Calm -- 30.12 in1020.0 mb 0.00 in0.0 mm 0.00 in0.0 mm 0.00 in0.0 mm
09:31 AM 49.1°F9.5°C 43.5°F6.4°C 81% Calm Calm -- 30.11 in1019.6 mb 0.00 in0.0 mm 0.00 in0.0 mm 0.00 in0.0 mm
09:36 AM 49.8°F9.9°C 43.9°F6.6°C 80% Calm Calm -- 30.12 in1020.0 mb 0.00 in0.0 mm 0.00 in0.0 mm 0.00 in0.0 mm
09:41 AM 50.2°F10.1°C 42.6°F5.9°C 75% Calm Calm -- 30.11 in1019.6 mb 0.00 in0.0 mm 0.00 in0.0 mm 0.00 in0.0 mm
09:47 AM 50.5°F10.3°C 43.0°F6.1°C 75% Calm Calm -- 30.11 in1019.6 mb 0.00 in0.0 mm 0.00 in0.0 mm 0.00 in0.0 mm
09:52 AM 51.3°F10.7°C 43.3°F6.3°C 74% Calm Calm -- 30.11 in1019.6 mb 0.00 in0.0 mm 0.00 in0.0 mm 0.00 in0.0 mm
09:57 AM 54.5°F12.5°C 46.8°F8.2°C 75% Calm Calm -- 30.11 in1019.6 mb 0.00 in0.0 mm 0.00 in0.0 mm 0.00 in0.0 mm
10:02 AM 54.5°F12.5°C 46.4°F8.0°C 74% Calm Calm -- 30.11 in1019.6 mb 0.00 in0.0 mm 0.00 in0.0 mm 0.00 in0.0 mm
10:07 AM 54.7°F12.6°C 46.6°F8.1°C 74% Calm Calm -- 30.11 in1019.6 mb 0.00 in0.0 mm 0.00 in0.0 mm 0.00 in0.0 mm
10:12 AM 54.7°F12.6°C 46.9°F8.3°C 75% Calm Calm -- 30.10 in1019.3 mb 0.00 in0.0 mm 0.00 in0.0 mm 0.00 in0.0 mm
10:17 AM 52.7°F11.5°C 46.8°F8.2°C 80% 0.2 mph SE0.3 kmh SE 4.9 mph7.9 kmh 30.11 in1019.6 mb 0.00 in0.0 mm 0.00 in0.0 mm 0.00 in0.0 mm
10:22 AM 52.3°F11.3°C 47.3°F8.5°C 83% Calm Calm 4.9 mph7.9 kmh 30.11 in1019.6 mb 0.00 in0.0 mm 0.00 in0.0 mm 0.00 in0.0 mm
10:27 AM 52.2°F11.2°C 45.9°F7.7°C 79% Calm Calm -- 30.11 in1019.6 mb 0.00 in0.0 mm 0.00 in0.0 mm 0.00 in0.0 mm
10:32 AM 52.3°F11.3°C 45.7°F7.6°C 78% Calm Calm -- 30.11 in1019.6 mb 0.00 in0.0 mm 0.00 in0.0 mm 0.00 in0.0 mm
10:38 AM 53.8°F12.1°C 46.0°F7.8°C 75% Calm Calm -- 30.10 in1019.3 mb 0.00 in0.0 mm 0.00 in0.0 mm 0.00 in0.0 mm
10:43 AM 53.6°F12.0°C 46.9°F8.3°C 78% Calm Calm -- 30.10 in1019.3 mb 0.00 in0.0 mm 0.00 in0.0 mm 0.00 in0.0 mm
10:48 AM 53.8°F12.1°C 46.0°F7.8°C 75% Calm Calm -- 30.10 in1019.3 mb 0.00 in0.0 mm 0.00 in0.0 mm 0.00 in0.0 mm
10:53 AM 54.1°F12.3°C 45.7°F7.6°C 73% Calm Calm -- 30.10 in1019.3 mb 0.00 in0.0 mm 0.00 in0.0 mm 0.00 in0.0 mm
10:58 AM 55.9°F13.3°C 47.5°F8.6°C 73% Calm Calm 2.5 mph4.0 kmh 30.10 in1019.3 mb 0.00 in0.0 mm 0.00 in0.0 mm 0.00 in0.0 mm
11:03 AM 55.9°F13.3°C 47.5°F8.6°C 73% Calm Calm 4.9 mph7.9 kmh 30.09 in1019.0 mb 0.00 in0.0 mm 0.00 in0.0 mm 0.00 in0.0 mm
11:08 AM 55.9°F13.3°C 47.8°F8.8°C 74% Calm Calm 2.5 mph4.0 kmh 30.09 in1019.0 mb 0.00 in0.0 mm 0.00 in0.0 mm 0.00 in0.0 mm
11:13 AM 56.1°F13.4°C 47.7°F8.7°C 73% Calm Calm 4.9 mph7.9 kmh 30.09 in1019.0 mb 0.00 in0.0 mm 0.00 in0.0 mm 0.00 in0.0 mm
11:18 AM 57.0°F13.9°C 48.4°F9.1°C 73% Calm Calm 4.9 mph7.9 kmh 30.09 in1019.0 mb 0.00 in0.0 mm 0.00 in0.0 mm 0.00 in0.0 mm
11:23 AM 56.8°F13.8°C 48.6°F9.2°C 74% Calm Calm 4.9 mph7.9 kmh 30.09 in1019.0 mb 0.00 in0.0 mm 0.00 in0.0 mm 0.00 in0.0 mm
11:28 AM 56.7°F13.7°C 48.4°F9.1°C 74% Calm Calm 4.9 mph7.9 kmh 30.09 in1019.0 mb 0.00 in0.0 mm 0.00 in0.0 mm 0.00 in0.0 mm
11:34 AM 56.5°F13.6°C 48.4°F9.1°C 74% 3.8 mph SE6.1 kmh SE 4.9 mph7.9 kmh 30.09 in1019.0 mb 0.00 in0.0 mm 0.00 in0.0 mm 0.00 in0.0 mm
11:39 AM 56.7°F13.7°C 48.0°F8.9°C 73% Calm Calm 7.6 mph12.2 kmh 30.09 in1019.0 mb 0.00 in0.0 mm 0.00 in0.0 mm 0.00 in0.0 mm
11:44 AM 56.7°F13.7°C 48.0°F8.9°C 73% 2.5 mph SE4.0 kmh SE 7.6 mph12.2 kmh 30.08 in1018.6 mb 0.00 in0.0 mm 0.00 in0.0 mm 0.00 in0.0 mm
11:49 AM 56.5°F13.6°C 48.0°F8.9°C 73% Calm Calm 4.9 mph7.9 kmh 30.08 in1018.6 mb 0.00 in0.0 mm 0.00 in0.0 mm 0.00 in0.0 mm
11:54 AM 56.5°F13.6°C 48.0°F8.9°C 73% Calm Calm 7.6 mph12.2 kmh 30.09 in1019.0 mb 0.00 in0.0 mm 0.00 in0.0 mm 0.00 in0.0 mm
11:59 AM 56.3°F13.5°C 48.6°F9.2°C 75% Calm Calm 4.9 mph7.9 kmh 30.08 in1018.6 mb 0.00 in0.0 mm 0.00 in0.0 mm 0.00 in0.0 mm
12:04 PM 56.1°F13.4°C 47.3°F8.5°C 72% 0.9 mph ESE1.4 kmh ESE 4.9 mph7.9 kmh 30.07 in1018.3 mb 0.00 in0.0 mm 0.00 in0.0 mm 0.00 in0.0 mm
12:09 PM 56.1°F13.4°C 47.7°F8.7°C 73% Calm Calm 4.9 mph7.9 kmh 30.08 in1018.6 mb 0.00 in0.0 mm 0.00 in0.0 mm 0.00 in0.0 mm
12:14 PM 55.9°F13.3°C 47.8°F8.8°C 74% Calm Calm 7.6 mph12.2 kmh 30.07 in1018.3 mb 0.00 in0.0 mm 0.00 in0.0 mm 0.00 in0.0 mm
12:19 PM 55.8°F13.2°C 47.7°F8.7°C 74% 1.3 mph SE2.1 kmh SE 4.9 mph7.9 kmh 30.06 in1017.9 mb 0.00 in0.0 mm 0.00 in0.0 mm 0.00 in0.0 mm
12:25 PM 55.8°F13.2°C 47.7°F8.7°C 74% Calm Calm 7.6 mph12.2 kmh 30.06 in1017.9 mb 0.00 in0.0 mm 0.00 in0.0 mm 0.00 in0.0 mm
12:30 PM 55.8°F13.2°C 47.3°F8.5°C 73% 2.9 mph SE4.7 kmh SE 4.9 mph7.9 kmh 30.05 in1017.6 mb 0.00 in0.0 mm 0.00 in0.0 mm 0.00 in0.0 mm
12:35 PM 56.3°F13.5°C 47.5°F8.6°C 72% 2.5 mph SE4.0 kmh SE 7.6 mph12.2 kmh 30.04 in1017.3 mb 0.00 in0.0 mm 0.00 in0.0 mm 0.00 in0.0 mm
12:40 PM 56.5°F13.6°C 47.5°F8.6°C 72% Calm Calm 4.9 mph7.9 kmh 30.04 in1017.3 mb 0.00 in0.0 mm 0.00 in0.0 mm 0.00 in0.0 mm
12:45 PM 56.7°F13.7°C 47.3°F8.5°C 71% Calm Calm 4.9 mph7.9 kmh 30.04 in1017.3 mb 0.00 in0.0 mm 0.00 in0.0 mm 0.00 in0.0 mm
12:50 PM 56.7°F13.7°C 47.7°F8.7°C 72% 1.6 mph SE2.6 kmh SE 4.9 mph7.9 kmh 30.03 in1016.9 mb 0.00 in0.0 mm 0.00 in0.0 mm 0.00 in0.0 mm
12:55 PM 57.4°F14.1°C 48.0°F8.9°C 71% 2.2 mph S3.5 kmh S 7.6 mph12.2 kmh 30.03 in1016.9 mb 0.00 in0.0 mm 0.00 in0.0 mm 0.00 in0.0 mm
01:00 PM 57.4°F14.1°C 48.4°F9.1°C 72% 1.3 mph S2.1 kmh S 4.9 mph7.9 kmh 30.03 in1016.9 mb 0.00 in0.0 mm 0.00 in0.0 mm 0.00 in0.0 mm
01:05 PM 57.4°F14.1°C 48.0°F8.9°C 71% Calm Calm 4.9 mph7.9 kmh 30.03 in1016.9 mb 0.00 in0.0 mm 0.00 in0.0 mm 0.00 in0.0 mm
01:10 PM 57.6°F14.2°C 48.2°F9.0°C 71% 0.2 mph S0.3 kmh S 4.9 mph7.9 kmh 30.02 in1016.6 mb 0.00 in0.0 mm 0.00 in0.0 mm 0.00 in0.0 mm
01:15 PM 58.1°F14.5°C 48.7°F9.3°C 71% Calm Calm 7.6 mph12.2 kmh 30.02 in1016.6 mb 0.00 in0.0 mm 0.00 in0.0 mm 0.00 in0.0 mm
01:20 PM 58.1°F14.5°C 48.4°F9.1°C 70% Calm Calm 4.9 mph7.9 kmh 30.02 in1016.6 mb 0.00 in0.0 mm 0.00 in0.0 mm 0.00 in0.0 mm
01:26 PM 58.3°F14.6°C 48.9°F9.4°C 71% Calm Calm 4.9 mph7.9 kmh 30.02 in1016.6 mb 0.00 in0.0 mm 0.00 in0.0 mm 0.00 in0.0 mm
01:31 PM 58.5°F14.7°C 49.1°F9.5°C 71% 4.9 mph SE7.9 kmh SE 7.6 mph12.2 kmh 30.01 in1016.3 mb 0.00 in0.0 mm 0.00 in0.0 mm 0.00 in0.0 mm
01:36 PM 58.5°F14.7°C 49.5°F9.7°C 72% Calm Calm 4.9 mph7.9 kmh 30.01 in1016.3 mb 0.00 in0.0 mm 0.00 in0.0 mm 0.00 in0.0 mm
01:41 PM 58.5°F14.7°C 49.1°F9.5°C 71% 3.8 mph S6.1 kmh S 7.6 mph12.2 kmh 30.01 in1016.3 mb 0.00 in0.0 mm 0.00 in0.0 mm 0.00 in0.0 mm
01:46 PM 58.6°F14.8°C 49.6°F9.8°C 72% 2.2 mph S3.5 kmh S 7.6 mph12.2 kmh 30.00 in1015.9 mb 0.00 in0.0 mm 0.00 in0.0 mm 0.00 in0.0 mm
01:51 PM 58.6°F14.8°C 49.6°F9.8°C 72% Calm Calm 7.6 mph12.2 kmh 29.99 in1015.6 mb 0.00 in0.0 mm 0.00 in0.0 mm 0.00 in0.0 mm
01:56 PM 59.7°F15.4°C 50.7°F10.4°C 72% 2.9 mph S4.7 kmh S 7.6 mph12.2 kmh 30.00 in1015.9 mb 0.00 in0.0 mm 0.00 in0.0 mm 0.00 in0.0 mm
02:01 PM 59.5°F15.3°C 50.2°F10.1°C 71% Calm Calm 4.9 mph7.9 kmh 30.00 in1015.9 mb 0.00 in0.0 mm 0.00 in0.0 mm 0.00 in0.0 mm
02:06 PM 59.5°F15.3°C 50.5°F10.3°C 72% 3.4 mph SSE5.5 kmh SSE 4.9 mph7.9 kmh 29.99 in1015.6 mb 0.00 in0.0 mm 0.00 in0.0 mm 0.00 in0.0 mm
02:11 PM 59.4°F15.2°C 50.0°F10.0°C 71% 0.2 mph SSW0.3 kmh SSW 7.6 mph12.2 kmh 29.99 in1015.6 mb 0.00 in0.0 mm 0.00 in0.0 mm 0.00 in0.0 mm
02:17 PM 60.4°F15.8°C 50.5°F10.3°C 70% Calm Calm 4.9 mph7.9 kmh 29.98 in1015.2 mb 0.00 in0.0 mm 0.00 in0.0 mm 0.00 in0.0 mm
02:22 PM 60.4°F15.8°C 50.5°F10.3°C 70% 2.5 mph SSE4.0 kmh SSE 7.6 mph12.2 kmh 29.98 in1015.2 mb 0.00 in0.0 mm 0.00 in0.0 mm 0.00 in0.0 mm
02:27 PM 60.3°F15.7°C 50.9°F10.5°C 71% 1.8 mph SE2.9 kmh SE 4.9 mph7.9 kmh 29.98 in1015.2 mb 0.00 in0.0 mm 0.00 in0.0 mm 0.00 in0.0 mm
02:32 PM 60.1°F15.6°C 50.7°F10.4°C 71% 1.3 mph SSE2.1 kmh SSE 7.6 mph12.2 kmh 29.98 in1015.2 mb 0.00 in0.0 mm 0.00 in0.0 mm 0.00 in0.0 mm
02:37 PM 59.9°F15.5°C 50.5°F10.3°C 71% Calm Calm 4.9 mph7.9 kmh 29.98 in1015.2 mb 0.00 in0.0 mm 0.00 in0.0 mm 0.00 in0.0 mm
02:42 PM 59.7°F15.4°C 50.4°F10.2°C 71% Calm Calm 4.9 mph7.9 kmh 29.98 in1015.2 mb 0.00 in0.0 mm 0.00 in0.0 mm 0.00 in0.0 mm
02:47 PM 59.9°F15.5°C 50.5°F10.3°C 71% 0.7 mph SSE1.1 kmh SSE 4.9 mph7.9 kmh 29.98 in1015.2 mb 0.00 in0.0 mm 0.00 in0.0 mm 0.00 in0.0 mm
02:52 PM 59.9°F15.5°C 50.5°F10.3°C 71% 3.8 mph S6.1 kmh S 7.6 mph12.2 kmh 29.98 in1015.2 mb 0.00 in0.0 mm 0.00 in0.0 mm 0.00 in0.0 mm
02:57 PM 60.3°F15.7°C 50.9°F10.5°C 71% Calm Calm 2.5 mph4.0 kmh 29.98 in1015.2 mb 0.00 in0.0 mm 0.00 in0.0 mm 0.00 in0.0 mm
03:02 PM 60.4°F15.8°C 51.1°F10.6°C 71% Calm Calm 2.5 mph4.0 kmh 29.98 in1015.2 mb 0.00 in0.0 mm 0.00 in0.0 mm 0.00 in0.0 mm
03:07 PM 60.4°F15.8°C 50.5°F10.3°C 70% Calm Calm 2.5 mph4.0 kmh 29.97 in1014.9 mb 0.00 in0.0 mm 0.00 in0.0 mm 0.00 in0.0 mm
03:12 PM 60.4°F15.8°C 51.1°F10.6°C 71% Calm Calm 4.9 mph7.9 kmh 29.97 in1014.9 mb 0.00 in0.0 mm 0.00 in0.0 mm 0.00 in0.0 mm
03:18 PM 59.9°F15.5°C 51.3°F10.7°C 73% Calm Calm 2.5 mph4.0 kmh 29.97 in1014.9 mb 0.00 in0.0 mm 0.00 in0.0 mm 0.00 in0.0 mm
03:23 PM 60.1°F15.6°C 50.7°F10.4°C 71% Calm Calm 2.5 mph4.0 kmh 29.97 in1014.9 mb 0.00 in0.0 mm 0.00 in0.0 mm 0.00 in0.0 mm
03:28 PM 60.3°F15.7°C 50.4°F10.2°C 70% Calm Calm -- 29.96 in1014.6 mb 0.00 in0.0 mm 0.00 in0.0 mm 0.00 in0.0 mm
03:33 PM 60.3°F15.7°C 51.3°F10.7°C 72% Calm Calm 4.9 mph7.9 kmh 29.97 in1014.9 mb 0.00 in0.0 mm 0.00 in0.0 mm 0.00 in0.0 mm
03:38 PM 59.2°F15.1°C 50.9°F10.5°C 74% Calm Calm 4.9 mph7.9 kmh 29.97 in1014.9 mb 0.00 in0.0 mm 0.00 in0.0 mm 0.00 in0.0 mm
03:43 PM 59.2°F15.1°C 50.5°F10.3°C 73% Calm Calm -- 29.97 in1014.9 mb 0.00 in0.0 mm 0.00 in0.0 mm 0.00 in0.0 mm
03:48 PM 59.2°F15.1°C 50.9°F10.5°C 74% Calm Calm -- 29.97 in1014.9 mb 0.00 in0.0 mm 0.00 in0.0 mm 0.00 in0.0 mm
03:53 PM 59.0°F15.0°C 50.7°F10.4°C 74% Calm Calm 4.9 mph7.9 kmh 29.97 in1014.9 mb 0.00 in0.0 mm 0.00 in0.0 mm 0.00 in0.0 mm
03:58 PM 59.4°F15.2°C 50.7°F10.4°C 73% Calm Calm -- 29.96 in1014.6 mb 0.00 in0.0 mm 0.00 in0.0 mm 0.00 in0.0 mm
04:03 PM 59.4°F15.2°C 50.7°F10.4°C 73% Calm Calm -- 29.96 in1014.6 mb 0.00 in0.0 mm 0.00 in0.0 mm 0.00 in0.0 mm
04:09 PM 59.4°F15.2°C 50.7°F10.4°C 73% Calm Calm -- 29.96 in1014.6 mb 0.00 in0.0 mm 0.00 in0.0 mm 0.00 in0.0 mm
04:14 PM 59.4°F15.2°C 50.4°F10.2°C 72% Calm Calm -- 29.96 in1014.6 mb 0.00 in0.0 mm 0.00 in0.0 mm 0.00 in0.0 mm
04:19 PM 59.2°F15.1°C 50.2°F10.1°C 72% Calm Calm -- 29.96 in1014.6 mb 0.00 in0.0 mm 0.00 in0.0 mm 0.00 in0.0 mm
04:24 PM 59.2°F15.1°C 50.2°F10.1°C 72% Calm Calm -- 29.96 in1014.6 mb 0.00 in0.0 mm 0.00 in0.0 mm 0.00 in0.0 mm
04:29 PM 59.0°F15.0°C 50.4°F10.2°C 73% Calm Calm -- 29.95 in1014.2 mb 0.00 in0.0 mm 0.00 in0.0 mm 0.00 in0.0 mm
04:34 PM 58.8°F14.9°C 50.5°F10.3°C 74% Calm Calm -- 29.96 in1014.6 mb 0.00 in0.0 mm 0.00 in0.0 mm 0.00 in0.0 mm
04:39 PM 57.0°F13.9°C 49.1°F9.5°C 75% Calm Calm 2.5 mph4.0 kmh 29.96 in1014.6 mb 0.00 in0.0 mm 0.00 in0.0 mm 0.00 in0.0 mm
04:44 PM 57.0°F13.9°C 49.5°F9.7°C 76% Calm Calm 2.5 mph4.0 kmh 29.96 in1014.6 mb 0.00 in0.0 mm 0.00 in0.0 mm 0.00 in0.0 mm
04:49 PM 56.8°F13.8°C 49.3°F9.6°C 76% Calm Calm -- 29.96 in1014.6 mb 0.00 in0.0 mm 0.00 in0.0 mm 0.00 in0.0 mm
04:54 PM 56.7°F13.7°C 49.5°F9.7°C 77% Calm Calm -- 29.96 in1014.6 mb 0.00 in0.0 mm 0.00 in0.0 mm 0.00 in0.0 mm
04:59 PM 55.4°F13.0°C 48.4°F9.1°C 77% Calm Calm -- 29.96 in1014.6 mb 0.00 in0.0 mm 0.00 in0.0 mm 0.00 in0.0 mm
05:05 PM 55.4°F13.0°C 48.7°F9.3°C 78% Calm Calm -- 29.96 in1014.6 mb 0.00 in0.0 mm 0.00 in0.0 mm 0.00 in0.0 mm
05:10 PM 55.4°F13.0°C 48.9°F9.4°C 79% Calm Calm -- 29.95 in1014.2 mb 0.00 in0.0 mm 0.00 in0.0 mm 0.00 in0.0 mm
05:15 PM 55.2°F12.9°C 49.1°F9.5°C 80% Calm Calm -- 29.96 in1014.6 mb 0.00 in0.0 mm 0.00 in0.0 mm 0.00 in0.0 mm
05:20 PM 54.1°F12.3°C 48.4°F9.1°C 81% Calm Calm -- 29.96 in1014.6 mb 0.00 in0.0 mm 0.00 in0.0 mm 0.00 in0.0 mm
05:25 PM 54.1°F12.3°C 48.4°F9.1°C 81% Calm Calm -- 29.96 in1014.6 mb 0.00 in0.0 mm 0.00 in0.0 mm 0.00 in0.0 mm
05:30 PM 54.1°F12.3°C 48.4°F9.1°C 81% Calm Calm -- 29.95 in1014.2 mb 0.00 in0.0 mm 0.00 in0.0 mm 0.00 in0.0 mm
05:35 PM 54.1°F12.3°C 48.4°F9.1°C 81% Calm Calm -- 29.95 in1014.2 mb 0.00 in0.0 mm 0.00 in0.0 mm 0.00 in0.0 mm
05:40 PM 53.8°F12.1°C 48.4°F9.1°C 82% Calm Calm -- 29.96 in1014.6 mb 0.00 in0.0 mm 0.00 in0.0 mm 0.00 in0.0 mm
05:45 PM 53.8°F12.1°C 49.1°F9.5°C 84% Calm Calm -- 29.96 in1014.6 mb 0.00 in0.0 mm 0.00 in0.0 mm 0.00 in0.0 mm
05:50 PM 53.6°F12.0°C 48.9°F9.4°C 84% Calm Calm -- 29.96 in1014.6 mb 0.00 in0.0 mm 0.00 in0.0 mm 0.00 in0.0 mm
05:55 PM 53.4°F11.9°C 48.4°F9.1°C 83% Calm Calm -- 29.95 in1014.2 mb 0.00 in0.0 mm 0.00 in0.0 mm 0.00 in0.0 mm
06:01 PM 53.6°F12.0°C 48.2°F9.0°C 82% Calm Calm -- 29.95 in1014.2 mb 0.00 in0.0 mm 0.00 in0.0 mm 0.00 in0.0 mm
06:06 PM 53.6°F12.0°C 47.8°F8.8°C 81% Calm Calm -- 29.96 in1014.6 mb 0.00 in0.0 mm 0.00 in0.0 mm 0.00 in0.0 mm
06:11 PM 53.6°F12.0°C 47.8°F8.8°C 81% Calm Calm -- 29.97 in1014.9 mb 0.00 in0.0 mm 0.00 in0.0 mm 0.00 in0.0 mm
06:16 PM 53.8°F12.1°C 48.0°F8.9°C 81% Calm Calm -- 29.96 in1014.6 mb 0.00 in0.0 mm 0.00 in0.0 mm 0.00 in0.0 mm
06:21 PM 54.1°F12.3°C 48.0°F8.9°C 80% Calm Calm -- 29.96 in1014.6 mb 0.00 in0.0 mm 0.00 in0.0 mm 0.00 in0.0 mm
06:26 PM 54.1°F12.3°C 48.0°F8.9°C 80% Calm Calm -- 29.96 in1014.6 mb 0.00 in0.0 mm 0.00 in0.0 mm 0.00 in0.0 mm
06:31 PM 54.1°F12.3°C 47.8°F8.8°C 79% Calm Calm -- 29.97 in1014.9 mb 0.00 in0.0 mm 0.00 in0.0 mm 0.00 in0.0 mm
06:36 PM 54.3°F12.4°C 47.3°F8.5°C 77% Calm Calm -- 29.97 in1014.9 mb 0.00 in0.0 mm 0.00 in0.0 mm 0.00 in0.0 mm
06:41 PM 54.9°F12.7°C 47.5°F8.6°C 76% Calm Calm -- 29.98 in1015.2 mb 0.00 in0.0 mm 0.00 in0.0 mm 0.00 in0.0 mm
06:46 PM 54.7°F12.6°C 47.7°F8.7°C 77% Calm Calm -- 29.98 in1015.2 mb 0.00 in0.0 mm 0.00 in0.0 mm 0.00 in0.0 mm
06:51 PM 54.7°F12.6°C 46.6°F8.1°C 74% Calm Calm -- 29.97 in1014.9 mb 0.00 in0.0 mm 0.00 in0.0 mm 0.00 in0.0 mm
06:57 PM 54.9°F12.7°C 46.8°F8.2°C 74% Calm Calm -- 29.98 in1015.2 mb 0.00 in0.0 mm 0.00 in0.0 mm 0.00 in0.0 mm
07:02 PM 55.0°F12.8°C 46.9°F8.3°C 74% Calm Calm -- 29.98 in1015.2 mb 0.00 in0.0 mm 0.00 in0.0 mm 0.00 in0.0 mm
07:07 PM 55.0°F12.8°C 46.9°F8.3°C 74% Calm Calm -- 29.98 in1015.2 mb 0.00 in0.0 mm 0.00 in0.0 mm 0.00 in0.0 mm
07:12 PM 55.0°F12.8°C 46.6°F8.1°C 73% Calm Calm -- 29.98 in1015.2 mb 0.00 in0.0 mm 0.00 in0.0 mm 0.00 in0.0 mm
07:17 PM 54.9°F12.7°C 46.8°F8.2°C 74% Calm Calm -- 29.99 in1015.6 mb 0.00 in0.0 mm 0.00 in0.0 mm 0.00 in0.0 mm
07:22 PM 54.3°F12.4°C 46.2°F7.9°C 74% Calm Calm -- 29.99 in1015.6 mb 0.00 in0.0 mm 0.00 in0.0 mm 0.00 in0.0 mm
07:27 PM 54.3°F12.4°C 46.2°F7.9°C 74% Calm Calm -- 29.99 in1015.6 mb 0.00 in0.0 mm 0.00 in0.0 mm 0.00 in0.0 mm
07:32 PM 54.3°F12.4°C 45.5°F7.5°C 72% Calm Calm -- 29.99 in1015.6 mb 0.00 in0.0 mm 0.00 in0.0 mm 0.00 in0.0 mm
07:37 PM 54.5°F12.5°C 45.7°F7.6°C 72% Calm Calm -- 30.00 in1015.9 mb 0.00 in0.0 mm 0.00 in0.0 mm 0.00 in0.0 mm
07:42 PM 54.5°F12.5°C 46.0°F7.8°C 73% Calm Calm -- 29.99 in1015.6 mb 0.00 in0.0 mm 0.00 in0.0 mm 0.00 in0.0 mm
07:47 PM 54.3°F12.4°C 46.2°F7.9°C 74% Calm Calm -- 30.00 in1015.9 mb 0.00 in0.0 mm 0.00 in0.0 mm 0.00 in0.0 mm
07:52 PM 54.3°F12.4°C 46.6°F8.1°C 75% Calm Calm -- 30.00 in1015.9 mb 0.00 in0.0 mm 0.00 in0.0 mm 0.00 in0.0 mm
07:58 PM 54.1°F12.3°C 47.1°F8.4°C 77% Calm Calm -- 30.01 in1016.3 mb 0.00 in0.0 mm 0.00 in0.0 mm 0.00 in0.0 mm
08:03 PM 53.2°F11.8°C 46.6°F8.1°C 78% Calm Calm -- 30.01 in1016.3 mb 0.00 in0.0 mm 0.00 in0.0 mm 0.00 in0.0 mm
08:08 PM 53.4°F11.9°C 46.4°F8.0°C 77% Calm Calm -- 30.01 in1016.3 mb 0.00 in0.0 mm 0.00 in0.0 mm 0.00 in0.0 mm
08:13 PM 53.2°F11.8°C 46.2°F7.9°C 77% Calm Calm -- 30.01 in1016.3 mb 0.00 in0.0 mm 0.00 in0.0 mm 0.00 in0.0 mm
08:18 PM 53.2°F11.8°C 46.2°F7.9°C 77% Calm Calm -- 30.00 in1015.9 mb 0.00 in0.0 mm 0.00 in0.0 mm 0.00 in0.0 mm
08:23 PM 53.1°F11.7°C 45.3°F7.4°C 75% Calm Calm -- 30.01 in1016.3 mb 0.00 in0.0 mm 0.00 in0.0 mm 0.00 in0.0 mm
08:28 PM 53.1°F11.7°C 45.3°F7.4°C 75% Calm Calm -- 30.01 in1016.3 mb 0.00 in0.0 mm 0.00 in0.0 mm 0.00 in0.0 mm
08:33 PM 53.1°F11.7°C 45.3°F7.4°C 75% Calm Calm -- 30.01 in1016.3 mb 0.00 in0.0 mm 0.00 in0.0 mm 0.00 in0.0 mm
08:38 PM 53.2°F11.8°C 45.5°F7.5°C 75% Calm Calm -- 30.01 in1016.3 mb 0.00 in0.0 mm 0.00 in0.0 mm 0.00 in0.0 mm
08:43 PM 53.1°F11.7°C 45.7°F7.6°C 76% Calm Calm -- 30.02 in1016.6 mb 0.00 in0.0 mm 0.00 in0.0 mm 0.00 in0.0 mm
08:49 PM 52.9°F11.6°C 46.2°F7.9°C 78% Calm Calm -- 30.02 in1016.6 mb 0.00 in0.0 mm 0.00 in0.0 mm 0.00 in0.0 mm
08:54 PM 52.9°F11.6°C 46.2°F7.9°C 78% Calm Calm -- 30.02 in1016.6 mb 0.00 in0.0 mm 0.00 in0.0 mm 0.00 in0.0 mm
08:59 PM 52.5°F11.4°C 45.9°F7.7°C 78% Calm Calm -- 30.02 in1016.6 mb 0.00 in0.0 mm 0.00 in0.0 mm 0.00 in0.0 mm
09:04 PM 52.3°F11.3°C 46.0°F7.8°C 79% Calm Calm -- 30.02 in1016.6 mb 0.00 in0.0 mm 0.00 in0.0 mm 0.00 in0.0 mm
09:09 PM 52.2°F11.2°C 46.6°F8.1°C 81% Calm Calm -- 30.02 in1016.6 mb 0.00 in0.0 mm 0.00 in0.0 mm 0.00 in0.0 mm
09:14 PM 51.8°F11.0°C 46.8°F8.2°C 83% Calm Calm -- 30.03 in1016.9 mb 0.00 in0.0 mm 0.00 in0.0 mm 0.00 in0.0 mm
09:19 PM 50.5°F10.3°C 45.5°F7.5°C 83% Calm Calm -- 30.03 in1016.9 mb 0.00 in0.0 mm 0.00 in0.0 mm 0.00 in0.0 mm
09:24 PM 50.4°F10.2°C 45.3°F7.4°C 83% Calm Calm -- 30.03 in1016.9 mb 0.00 in0.0 mm 0.00 in0.0 mm 0.00 in0.0 mm
09:29 PM 50.4°F10.2°C 45.3°F7.4°C 83% Calm Calm -- 30.03 in1016.9 mb 0.00 in0.0 mm 0.00 in0.0 mm 0.00 in0.0 mm
09:34 PM 50.2°F10.1°C 45.1°F7.3°C 83% Calm Calm -- 30.03 in1016.9 mb 0.00 in0.0 mm 0.00 in0.0 mm 0.00 in0.0 mm
09:39 PM 50.0°F10.0°C 44.8°F7.1°C 82% Calm Calm -- 30.03 in1016.9 mb 0.00 in0.0 mm 0.00 in0.0 mm 0.00 in0.0 mm
09:44 PM 50.0°F10.0°C 44.4°F6.9°C 81% Calm Calm -- 30.03 in1016.9 mb 0.00 in0.0 mm 0.00 in0.0 mm 0.00 in0.0 mm
09:50 PM 50.0°F10.0°C 44.8°F7.1°C 82% Calm Calm -- 30.03 in1016.9 mb 0.00 in0.0 mm 0.00 in0.0 mm 0.00 in0.0 mm
09:55 PM 50.2°F10.1°C 44.6°F7.0°C 81% Calm Calm -- 30.04 in1017.3 mb 0.00 in0.0 mm 0.00 in0.0 mm 0.00 in0.0 mm
10:00 PM 50.2°F10.1°C 45.0°F7.2°C 82% Calm Calm -- 30.04 in1017.3 mb 0.00 in0.0 mm 0.00 in0.0 mm 0.00 in0.0 mm
10:05 PM 50.0°F10.0°C 45.0°F7.2°C 83% Calm Calm -- 30.04 in1017.3 mb 0.00 in0.0 mm 0.00 in0.0 mm 0.00 in0.0 mm
10:10 PM 50.0°F10.0°C 44.8°F7.1°C 82% Calm Calm -- 30.04 in1017.3 mb 0.00 in0.0 mm 0.00 in0.0 mm 0.00 in0.0 mm
10:15 PM 50.0°F10.0°C 44.8°F7.1°C 82% Calm Calm -- 30.04 in1017.3 mb 0.00 in0.0 mm 0.00 in0.0 mm 0.00 in0.0 mm
10:20 PM 50.5°F10.3°C 45.3°F7.4°C 82% Calm Calm -- 30.04 in1017.3 mb 0.00 in0.0 mm 0.00 in0.0 mm 0.00 in0.0 mm
10:25 PM 50.5°F10.3°C 45.0°F7.2°C 81% Calm Calm -- 30.04 in1017.3 mb 0.00 in0.0 mm 0.00 in0.0 mm 0.00 in0.0 mm
10:30 PM 50.5°F10.3°C 45.0°F7.2°C 81% Calm Calm -- 30.04 in1017.3 mb 0.00 in0.0 mm 0.00 in0.0 mm 0.00 in0.0 mm
10:35 PM 50.5°F10.3°C 45.5°F7.5°C 83% Calm Calm -- 30.04 in1017.3 mb 0.00 in0.0 mm 0.00 in0.0 mm 0.00 in0.0 mm
10:40 PM 49.3°F9.6°C 44.6°F7.0°C 84% Calm Calm -- 30.04 in1017.3 mb 0.00 in0.0 mm 0.00 in0.0 mm 0.00 in0.0 mm
10:45 PM 49.1°F9.5°C 44.4°F6.9°C 84% Calm Calm -- 30.05 in1017.6 mb 0.00 in0.0 mm 0.00 in0.0 mm 0.00 in0.0 mm
10:50 PM 49.1°F9.5°C 45.1°F7.3°C 86% Calm Calm -- 30.05 in1017.6 mb 0.00 in0.0 mm 0.00 in0.0 mm 0.00 in0.0 mm
10:56 PM 48.9°F9.4°C 44.2°F6.8°C 84% Calm Calm -- 30.05 in1017.6 mb 0.00 in0.0 mm 0.00 in0.0 mm 0.00 in0.0 mm
11:01 PM 49.8°F9.9°C 44.6°F7.0°C 82% Calm Calm -- 30.05 in1017.6 mb 0.00 in0.0 mm 0.00 in0.0 mm 0.00 in0.0 mm
11:06 PM 49.6°F9.8°C 44.8°F7.1°C 83% Calm Calm -- 30.05 in1017.6 mb 0.00 in0.0 mm 0.00 in0.0 mm 0.00 in0.0 mm
11:11 PM 49.6°F9.8°C 45.0°F7.2°C 84% Calm Calm -- 30.05 in1017.6 mb 0.00 in0.0 mm 0.00 in0.0 mm 0.00 in0.0 mm
11:16 PM 49.3°F9.6°C 45.3°F7.4°C 86% Calm Calm -- 30.05 in1017.6 mb 0.00 in0.0 mm 0.00 in0.0 mm 0.00 in0.0 mm
11:21 PM 47.8°F8.8°C 43.9°F6.6°C 86% Calm Calm -- 30.05 in1017.6 mb 0.00 in0.0 mm 0.00 in0.0 mm 0.00 in0.0 mm
11:26 PM 47.8°F8.8°C 43.9°F6.6°C 86% Calm Calm -- 30.06 in1017.9 mb 0.00 in0.0 mm 0.00 in0.0 mm 0.00 in0.0 mm
11:31 PM 47.8°F8.8°C 43.5°F6.4°C 85% Calm Calm 4.9 mph7.9 kmh 30.06 in1017.9 mb 0.00 in0.0 mm 0.00 in0.0 mm 0.00 in0.0 mm
11:36 PM 48.0°F8.9°C 44.1°F6.7°C 86% Calm Calm -- 30.05 in1017.6 mb 0.00 in0.0 mm 0.00 in0.0 mm 0.00 in0.0 mm
11:41 PM 48.2°F9.0°C 43.9°F6.6°C 85% Calm Calm 2.5 mph4.0 kmh 30.06 in1017.9 mb 0.00 in0.0 mm 0.00 in0.0 mm 0.00 in0.0 mm
11:47 PM 48.0°F8.9°C 44.1°F6.7°C 86% Calm Calm -- 30.06 in1017.9 mb 0.00 in0.0 mm 0.00 in0.0 mm 0.00 in0.0 mm
11:52 PM 48.0°F8.9°C 44.1°F6.7°C 86% Calm Calm -- 30.06 in1017.9 mb 0.00 in0.0 mm 0.00 in0.0 mm 0.00 in0.0 mm
11:57 PM 48.0°F8.9°C 44.1°F6.7°C 86% Calm Calm 2.5 mph4.0 kmh 30.06 in1017.9 mb 0.00 in0.0 mm 0.00 in0.0 mm 0.00 in0.0 mm